Alconbury RAF, United Kingdom

4:51 AM BST on September 02, 2015 (GMT +0100)
Huntingdon | | Change Station
CLOSE
Current Station
Personal Weather Station
Location: Huntingdon,
Elevation: 79 ft
Nearby Weather Stations

Elev 79 ft 52.34 °N, 0.17 °W | Updated 6 seconds ago

Mostly Cloudy
Mostly Cloudy
52.5 °F
Feels Like 52.5 °F
N
1.2
Wind Variable Wind from NNE
Gusts 1.2 mph

Today
High -- | Low -- °F
--% Chance of Precip.
Yesterday
High -- | Low -- °F
Precip. -- in
6:12 AM 7:47 PM
Waning Gibbous, 84% visible
Pressure 30.04 in
Visibility 6.2 miles
Clouds Scattered Clouds 6000 ft
Mostly Cloudy 9000 ft
Dew Point 51 °F
Humidity 94%
Rainfall 0.00 in
Snow Depth Not available.
UV 0 out of 12
Pollen Not available.
Air Quality Not available.
Flu Activity Not available.
METAR EGXT 020250Z AUTO 28009KT 9999 SCT060/// BKN090/// 11/10 Q1017
Pressure 30.04 in
Visibility 6.2 miles
Clouds Scattered Clouds 6000 ft
Mostly Cloudy 9000 ft
Dew Point 51 °F
Humidity 94%
Rainfall 0.00 in
Snow Depth Not available.
UV 0 out of 12
Pollen Not available.
Air Quality Not available.
Flu Activity Not available.
METAR EGXT 020250Z AUTO 28009KT 9999 SCT060/// BKN090/// 11/10 Q1017

10-Day Weather Forecast

×

Almanac

Astronomy

Sep. 02, 2015 Rise Set
Actual Time
Civil Twilight
Nautical Twilight
Astronomical Twilight
Moon
Length of Visible Light
Length of Day
Tomorrow will be .
, % of the Moon is Illuminated

Today's Extremes

Country Highs Country Lows

Community

WunderPhotos

Upload Photos

1,851,690 photos uploaded!

WunderBlogs® & News

Nearby

Air Quality

  Air Quality AQ Index Pollutant
Not available.

Snow Depth

Station Depth Elevation

Earthquake Activity

City Distance Mag. Time & Date
Minimum magnitude displayed is 2.5.

Coastal Water Temperatures

Place Temperature

Stations

Nearby Weather Stations

Station Location Temp. Windchill Dew Point Humidity Wind Precip. Elev Updated Type